Aviation Digital Data Service (ADDS)

Output produced by METARs form (2104 UTC 20 August 2019)
found at http://www.aviationweather.gov/metar/data/
 
METAR text: FIMP 202100Z 10011KT 9999 VCSH SCT015 BKN050 21/19 Q1022
Conditions at: FIMP (PLAISANCE , MU) observed 2100 UTC 20 August 2019
Temperature: 21.0°C (70°F)
Dewpoint: 19.0°C (66°F) [RH = 88%]
Pressure (altimeter): 30.18 inches Hg (1022.0 mb)
Winds: from the E (100 degrees) at 13 MPH (11 knots; 5.7 m/s)
Visibility: 6 or more miles (10+ km)
Ceiling: 5000 feet AGL
Clouds: scattered clouds at 1500 feet AGL
broken clouds at 5000 feet AGL
Weather: VCSH  (showers in vicinity)

METAR text: FIMP 202000Z 11014KT 9999 VCSH SCT015 BKN050 21/19 Q1023
Conditions at: FIMP (PLAISANCE , MU) observed 2000 UTC 20 August 2019
Temperature: 21.0°C (70°F)
Dewpoint: 19.0°C (66°F) [RH = 88%]
Pressure (altimeter): 30.21 inches Hg (1023.0 mb)
Winds: from the ESE (110 degrees) at 16 MPH (14 knots; 7.2 m/s)
Visibility: 6 or more miles (10+ km)
Ceiling: 5000 feet AGL
Clouds: scattered clouds at 1500 feet AGL
broken clouds at 5000 feet AGL
Weather: VCSH  (showers in vicinity)

METAR text: FIMP 201900Z 10016KT 5000 -SHRA FEW008 BKN014 BKN050 21/19 Q1023
Conditions at: FIMP (PLAISANCE , MU) observed 1900 UTC 20 August 2019
Temperature: 21.0°C (70°F)
Dewpoint: 19.0°C (66°F) [RH = 88%]
Pressure (altimeter): 30.21 inches Hg (1023.0 mb)
Winds: from the E (100 degrees) at 18 MPH (16 knots; 8.2 m/s)
Visibility: 3 miles ( 5 km)
Ceiling: 1400 feet AGL
Clouds: few clouds at 800 feet AGL
broken clouds at 1400 feet AGL
broken clouds at 5000 feet AGL
Weather: -SHRA  (light rain showers)

METAR text: FIMP 201800Z 11014KT 9999 VCSH FEW010 BKN015 BKN050 21/19 Q1023
Conditions at: FIMP (PLAISANCE , MU) observed 1800 UTC 20 August 2019
Temperature: 21.0°C (70°F)
Dewpoint: 19.0°C (66°F) [RH = 88%]
Pressure (altimeter): 30.21 inches Hg (1023.0 mb)
Winds: from the ESE (110 degrees) at 16 MPH (14 knots; 7.2 m/s)
Visibility: 6 or more miles (10+ km)
Ceiling: 1500 feet AGL
Clouds: few clouds at 1000 feet AGL
broken clouds at 1500 feet AGL
broken clouds at 5000 feet AGL
Weather: VCSH  (showers in vicinity)

METAR text: FIMP 201600Z 08011KT 8000 VCSH FEW008 BKN014 BKN050 20/19 Q1023
Conditions at: FIMP (PLAISANCE , MU) observed 1600 UTC 20 August 2019
Temperature: 20.0°C (68°F)
Dewpoint: 19.0°C (66°F) [RH = 94%]
Pressure (altimeter): 30.21 inches Hg (1023.0 mb)
Winds: from the E (80 degrees) at 13 MPH (11 knots; 5.7 m/s)
Visibility: 5 miles ( 8 km)
Ceiling: 1400 feet AGL
Clouds: few clouds at 800 feet AGL
broken clouds at 1400 feet AGL
broken clouds at 5000 feet AGL
Weather: VCSH  (showers in vicinity)

METAR text: FIMP 201500Z 09016KT 4000NW -SHRA FEW006 BKN014 BKN050 21/19 Q1022
Conditions at: FIMP (PLAISANCE , MU) observed 1500 UTC 20 August 2019
Temperature: 21.0°C (70°F)
Dewpoint: 19.0°C (66°F) [RH = 88%]
Pressure (altimeter): 30.18 inches Hg (1022.0 mb)
Winds: from the E (90 degrees) at 18 MPH (16 knots; 8.2 m/s)
Visibility: 2.49 miles (4.01 km)
Ceiling: 1400 feet AGL
Clouds: few clouds at 600 feet AGL
broken clouds at 1400 feet AGL
broken clouds at 5000 feet AGL
Weather: -SHRA  (light rain showers)

METAR text: FIMP 201400Z 09018KT 6000 VCSH FEW009 SCT014 BKN050 21/19 Q1022
Conditions at: FIMP (PLAISANCE , MU) observed 1400 UTC 20 August 2019
Temperature: 21.0°C (70°F)
Dewpoint: 19.0°C (66°F) [RH = 88%]
Pressure (altimeter): 30.18 inches Hg (1022.0 mb)
Winds: from the E (90 degrees) at 21 MPH (18 knots; 9.3 m/s)
Visibility: 4 miles ( 6 km)
Ceiling: 5000 feet AGL
Clouds: few clouds at 900 feet AGL
scattered clouds at 1400 feet AGL
broken clouds at 5000 feet AGL
Weather: VCSH  (showers in vicinity)

METAR text: FIMP 201300Z 11019KT 8000 VCSH FEW008 SCT014 BKN050 21/19 Q1021
Conditions at: FIMP (PLAISANCE , MU) observed 1300 UTC 20 August 2019
Temperature: 21.0°C (70°F)
Dewpoint: 19.0°C (66°F) [RH = 88%]
Pressure (altimeter): 30.15 inches Hg (1021.0 mb)
Winds: from the ESE (110 degrees) at 22 MPH (19 knots; 9.8 m/s)
Visibility: 5 miles ( 8 km)
Ceiling: 5000 feet AGL
Clouds: few clouds at 800 feet AGL
scattered clouds at 1400 feet AGL
broken clouds at 5000 feet AGL
Weather: VCSH  (showers in vicinity)

METAR text: FIMP 201200Z 10018KT 3000E VCSH FEW007 SCT013 BKN045 21/19 Q1021
Conditions at: FIMP (PLAISANCE , MU) observed 1200 UTC 20 August 2019
Temperature: 21.0°C (70°F)
Dewpoint: 19.0°C (66°F) [RH = 88%]
Pressure (altimeter): 30.15 inches Hg (1021.0 mb)
Winds: from the E (100 degrees) at 21 MPH (18 knots; 9.3 m/s)
Visibility: 1.86 miles (2.99 km)
Ceiling: 4500 feet AGL
Clouds: few clouds at 700 feet AGL
scattered clouds at 1300 feet AGL
broken clouds at 4500 feet AGL
Weather: VCSH  (showers in vicinity)

METAR text: FIMP 201100Z 11017KT 8000 VCSH FEW007 SCT013 22/20 Q1021
Conditions at: FIMP (PLAISANCE , MU) observed 1100 UTC 20 August 2019
Temperature: 22.0°C (72°F)
Dewpoint: 20.0°C (68°F) [RH = 88%]
Pressure (altimeter): 30.15 inches Hg (1021.0 mb)
Winds: from the ESE (110 degrees) at 20 MPH (17 knots; 8.7 m/s)
Visibility: 5 miles ( 8 km)
Ceiling: at least 12,000 feet AGL
Clouds: few clouds at 700 feet AGL
scattered clouds at 1300 feet AGL
Weather: VCSH  (showers in vicinity)

METAR text: FIMP 201000Z 11016KT 3000NW -SHRA FEW006 SCT014 BKN045 22/20 Q1021
Conditions at: FIMP (PLAISANCE , MU) observed 1000 UTC 20 August 2019
Temperature: 22.0°C (72°F)
Dewpoint: 20.0°C (68°F) [RH = 88%]
Pressure (altimeter): 30.15 inches Hg (1021.0 mb)
Winds: from the ESE (110 degrees) at 18 MPH (16 knots; 8.2 m/s)
Visibility: 1.86 miles (2.99 km)
Ceiling: 4500 feet AGL
Clouds: few clouds at 600 feet AGL
scattered clouds at 1400 feet AGL
broken clouds at 4500 feet AGL
Weather: -SHRA  (light rain showers)

METAR text: FIMP 200900Z 09019KT 5000E -SHRA FEW007 SCT014 BKN050 24/19 Q1022
Conditions at: FIMP (PLAISANCE , MU) observed 0900 UTC 20 August 2019
Temperature: 24.0°C (75°F)
Dewpoint: 19.0°C (66°F) [RH = 74%]
Pressure (altimeter): 30.18 inches Hg (1022.0 mb)
Winds: from the E (90 degrees) at 22 MPH (19 knots; 9.8 m/s)
Visibility: 3 miles ( 5 km)
Ceiling: 5000 feet AGL
Clouds: few clouds at 700 feet AGL
scattered clouds at 1400 feet AGL
broken clouds at 5000 feet AGL
Weather: -SHRA  (light rain showers)

METAR text: FIMP 200800Z 12014KT 8000 VCSH FEW010 BKN014 22/20 Q1022
Conditions at: FIMP (PLAISANCE , MU) observed 0800 UTC 20 August 2019
Temperature: 22.0°C (72°F)
Dewpoint: 20.0°C (68°F) [RH = 88%]
Pressure (altimeter): 30.18 inches Hg (1022.0 mb)
Winds: from the ESE (120 degrees) at 16 MPH (14 knots; 7.2 m/s)
Visibility: 5 miles ( 8 km)
Ceiling: 1400 feet AGL
Clouds: few clouds at 1000 feet AGL
broken clouds at 1400 feet AGL
Weather: VCSH  (showers in vicinity)

METAR text: FIMP 200700Z 12018KT 8000 VCSH FEW008 SCT014 23/19 Q1023
Conditions at: FIMP (PLAISANCE , MU) observed 0700 UTC 20 August 2019
Temperature: 23.0°C (73°F)
Dewpoint: 19.0°C (66°F) [RH = 78%]
Pressure (altimeter): 30.21 inches Hg (1023.0 mb)
Winds: from the ESE (120 degrees) at 21 MPH (18 knots; 9.3 m/s)
Visibility: 5 miles ( 8 km)
Ceiling: at least 12,000 feet AGL
Clouds: few clouds at 800 feet AGL
scattered clouds at 1400 feet AGL
Weather: VCSH  (showers in vicinity)

METAR text: FIMP 200600Z 11016KT 8000 VCSH FEW006 SCT014 22/20 Q1024
Conditions at: FIMP (PLAISANCE , MU) observed 0600 UTC 20 August 2019
Temperature: 22.0°C (72°F)
Dewpoint: 20.0°C (68°F) [RH = 88%]
Pressure (altimeter): 30.24 inches Hg (1024.0 mb)
Winds: from the ESE (110 degrees) at 18 MPH (16 knots; 8.2 m/s)
Visibility: 5 miles ( 8 km)
Ceiling: at least 12,000 feet AGL
Clouds: few clouds at 600 feet AGL
scattered clouds at 1400 feet AGL
Weather: VCSH  (showers in vicinity)

METAR text: FIMP 200500Z 12015KT 8000 VCSH FEW010 SCT014 23/19 Q1023
Conditions at: FIMP (PLAISANCE , MU) observed 0500 UTC 20 August 2019
Temperature: 23.0°C (73°F)
Dewpoint: 19.0°C (66°F) [RH = 78%]
Pressure (altimeter): 30.21 inches Hg (1023.0 mb)
Winds: from the ESE (120 degrees) at 17 MPH (15 knots; 7.7 m/s)
Visibility: 5 miles ( 8 km)
Ceiling: at least 12,000 feet AGL
Clouds: few clouds at 1000 feet AGL
scattered clouds at 1400 feet AGL
Weather: VCSH  (showers in vicinity)

METAR text: FIMP 200400Z 12016G27KT 9999 VCSH BKN014 SCT050 22/19 Q1023
Conditions at: FIMP (PLAISANCE , MU) observed 0400 UTC 20 August 2019
Temperature: 22.0°C (72°F)
Dewpoint: 19.0°C (66°F) [RH = 83%]
Pressure (altimeter): 30.21 inches Hg (1023.0 mb)
Winds: from the ESE (120 degrees) at 18 MPH (16 knots; 8.2 m/s)
gusting to 31 MPH (27 knots; 13.9 m/s)
Visibility: 6 or more miles (10+ km)
Ceiling: 1400 feet AGL
Clouds: broken clouds at 1400 feet AGL
scattered clouds at 5000 feet AGL
Weather: VCSH  (showers in vicinity)

METAR text: FIMP 200300Z 11015KT 8000 VCSH FEW005 SCT014 BKN045 22/19 Q1023
Conditions at: FIMP (PLAISANCE , MU) observed 0300 UTC 20 August 2019
Temperature: 22.0°C (72°F)
Dewpoint: 19.0°C (66°F) [RH = 83%]
Pressure (altimeter): 30.21 inches Hg (1023.0 mb)
Winds: from the ESE (110 degrees) at 17 MPH (15 knots; 7.7 m/s)
Visibility: 5 miles ( 8 km)
Ceiling: 4500 feet AGL
Clouds: few clouds at 500 feet AGL
scattered clouds at 1400 feet AGL
broken clouds at 4500 feet AGL
Weather: VCSH  (showers in vicinity)

METAR text: FIMP 200200Z 11016KT 8000 VCSH FEW006 BKN015 21/19 Q1022
Conditions at: FIMP (PLAISANCE , MU) observed 0200 UTC 20 August 2019
Temperature: 21.0°C (70°F)
Dewpoint: 19.0°C (66°F) [RH = 88%]
Pressure (altimeter): 30.18 inches Hg (1022.0 mb)
Winds: from the ESE (110 degrees) at 18 MPH (16 knots; 8.2 m/s)
Visibility: 5 miles ( 8 km)
Ceiling: 1500 feet AGL
Clouds: few clouds at 600 feet AGL
broken clouds at 1500 feet AGL
Weather: VCSH  (showers in vicinity)

METAR text: FIMP 200100Z 11013KT 9999 BKN015 22/19 Q1022
Conditions at: FIMP (PLAISANCE , MU) observed 0100 UTC 20 August 2019
Temperature: 22.0°C (72°F)
Dewpoint: 19.0°C (66°F) [RH = 83%]
Pressure (altimeter): 30.18 inches Hg (1022.0 mb)
Winds: from the ESE (110 degrees) at 15 MPH (13 knots; 6.7 m/s)
Visibility: 6 or more miles (10+ km)
Ceiling: 1500 feet AGL
Clouds: broken clouds at 1500 feet AGL
Weather: no significant weather observed at this time

METAR text: FIMP 200000Z 11013KT 9999 FEW006 BKN015 21/20 Q1022
Conditions at: FIMP (PLAISANCE , MU) observed 0000 UTC 20 August 2019
Temperature: 21.0°C (70°F)
Dewpoint: 20.0°C (68°F) [RH = 94%]
Pressure (altimeter): 30.18 inches Hg (1022.0 mb)
Winds: from the ESE (110 degrees) at 15 MPH (13 knots; 6.7 m/s)
Visibility: 6 or more miles (10+ km)
Ceiling: 1500 feet AGL
Clouds: few clouds at 600 feet AGL
broken clouds at 1500 feet AGL
Weather: no significant weather observed at this time

METAR text: FIMP 192300Z 03002KT 4000 -RA FEW004 BKN014 BKN045 20/19 Q1022 RERA
Conditions at: FIMP (PLAISANCE , MU) observed 2300 UTC 19 August 2019
Temperature: 20.0°C (68°F)
Dewpoint: 19.0°C (66°F) [RH = 94%]
Pressure (altimeter): 30.18 inches Hg (1022.0 mb)
Winds: from the NNE (30 degrees) at 2 MPH (2 knots; 1.0 m/s)
Visibility: 2.49 miles (4.01 km)
Ceiling: 1400 feet AGL
Clouds: few clouds at 400 feet AGL
broken clouds at 1400 feet AGL
broken clouds at 4500 feet AGL
Weather: -RA  (light rain)

METAR text: FIMP 192200Z 13007KT 9999 BKN016 BKN050 21/19 Q1022
Conditions at: FIMP (PLAISANCE , MU) observed 2200 UTC 19 August 2019
Temperature: 21.0°C (70°F)
Dewpoint: 19.0°C (66°F) [RH = 88%]
Pressure (altimeter): 30.18 inches Hg (1022.0 mb)
Winds: from the SE (130 degrees) at 8 MPH (7 knots; 3.6 m/s)
Visibility: 6 or more miles (10+ km)
Ceiling: 1600 feet AGL
Clouds: broken clouds at 1600 feet AGL
broken clouds at 5000 feet AGL
Weather: no significant weather observed at this time

METAR text: FIMP 192100Z 10014KT 9999 BKN016 SCT050 22/19 Q1023
Conditions at: FIMP (PLAISANCE , MU) observed 2100 UTC 19 August 2019
Temperature: 22.0°C (72°F)
Dewpoint: 19.0°C (66°F) [RH = 83%]
Pressure (altimeter): 30.21 inches Hg (1023.0 mb)
Winds: from the E (100 degrees) at 16 MPH (14 knots; 7.2 m/s)
Visibility: 6 or more miles (10+ km)
Ceiling: 1600 feet AGL
Clouds: broken clouds at 1600 feet AGL
scattered clouds at 5000 feet AGL
Weather: no significant weather observed at this time

METAR text: FIMP 192000Z 11010KT 9999 SCT016 BKN050 22/19 Q1023
Conditions at: FIMP (PLAISANCE , MU) observed 2000 UTC 19 August 2019
Temperature: 22.0°C (72°F)
Dewpoint: 19.0°C (66°F) [RH = 83%]
Pressure (altimeter): 30.21 inches Hg (1023.0 mb)
Winds: from the ESE (110 degrees) at 12 MPH (10 knots; 5.1 m/s)
Visibility: 6 or more miles (10+ km)
Ceiling: 5000 feet AGL
Clouds: scattered clouds at 1600 feet AGL
broken clouds at 5000 feet AGL
Weather: no significant weather observed at this time

METAR text: FIMP 191900Z 13009KT 9999 VCSH FEW008 SCT014 BKN050 22/19 Q1023
Conditions at: FIMP (PLAISANCE , MU) observed 1900 UTC 19 August 2019
Temperature: 22.0°C (72°F)
Dewpoint: 19.0°C (66°F) [RH = 83%]
Pressure (altimeter): 30.21 inches Hg (1023.0 mb)
Winds: from the SE (130 degrees) at 10 MPH (9 knots; 4.6 m/s)
Visibility: 6 or more miles (10+ km)
Ceiling: 5000 feet AGL
Clouds: few clouds at 800 feet AGL
scattered clouds at 1400 feet AGL
broken clouds at 5000 feet AGL
Weather: VCSH  (showers in vicinity)

METAR text: FIMP 191800Z 18008KT 2000W SHRA FEW005 BKN012 BKN050 21/19 Q1020
Conditions at: FIMP (PLAISANCE , MU) observed 1800 UTC 19 August 2019
Temperature: 21.0°C (70°F)
Dewpoint: 19.0°C (66°F) [RH = 88%]
Pressure (altimeter): 30.12 inches Hg (1020.0 mb)
Winds: from the S (180 degrees) at 9 MPH (8 knots; 4.1 m/s)
Visibility: 1.24 miles (2.00 km)
Ceiling: 1200 feet AGL
Clouds: few clouds at 500 feet AGL
broken clouds at 1200 feet AGL
broken clouds at 5000 feet AGL
Weather: SHRA  (rain showers)

METAR text: FIMP 191700Z 14008KT 9999 VCSH BKN015 SCT050 22/19 Q1023
Conditions at: FIMP (PLAISANCE , MU) observed 1700 UTC 19 August 2019
Temperature: 22.0°C (72°F)
Dewpoint: 19.0°C (66°F) [RH = 83%]
Pressure (altimeter): 30.21 inches Hg (1023.0 mb)
Winds: from the SE (140 degrees) at 9 MPH (8 knots; 4.1 m/s)
Visibility: 6 or more miles (10+ km)
Ceiling: 1500 feet AGL
Clouds: broken clouds at 1500 feet AGL
scattered clouds at 5000 feet AGL
Weather: VCSH  (showers in vicinity)

METAR text: FIMP 191600Z 16011KT 9999 VCSH SCT016 SCT050 22/19 Q1022
Conditions at: FIMP (PLAISANCE , MU) observed 1600 UTC 19 August 2019
Temperature: 22.0°C (72°F)
Dewpoint: 19.0°C (66°F) [RH = 83%]
Pressure (altimeter): 30.18 inches Hg (1022.0 mb)
Winds: from the SSE (160 degrees) at 13 MPH (11 knots; 5.7 m/s)
Visibility: 6 or more miles (10+ km)
Ceiling: at least 12,000 feet AGL
Clouds: scattered clouds at 1600 feet AGL
scattered clouds at 5000 feet AGL
Weather: VCSH  (showers in vicinity)

METAR text: FIMP 191500Z 13008KT 9999 VCSH FEW006 BKN015 BKN050 22/19 Q1021
Conditions at: FIMP (PLAISANCE , MU) observed 1500 UTC 19 August 2019
Temperature: 22.0°C (72°F)
Dewpoint: 19.0°C (66°F) [RH = 83%]
Pressure (altimeter): 30.15 inches Hg (1021.0 mb)
Winds: from the SE (130 degrees) at 9 MPH (8 knots; 4.1 m/s)
Visibility: 6 or more miles (10+ km)
Ceiling: 1500 feet AGL
Clouds: few clouds at 600 feet AGL
broken clouds at 1500 feet AGL
broken clouds at 5000 feet AGL
Weather: VCSH  (showers in vicinity)

METAR text: FIMP 191400Z 14003KT 9999 FEW006 SCT015 BKN050 21/19 Q1021
Conditions at: FIMP (PLAISANCE , MU) observed 1400 UTC 19 August 2019
Temperature: 21.0°C (70°F)
Dewpoint: 19.0°C (66°F) [RH = 88%]
Pressure (altimeter): 30.15 inches Hg (1021.0 mb)
Winds: from the SE (140 degrees) at 3 MPH (3 knots; 1.5 m/s)
Visibility: 6 or more miles (10+ km)
Ceiling: 5000 feet AGL
Clouds: few clouds at 600 feet AGL
scattered clouds at 1500 feet AGL
broken clouds at 5000 feet AGL
Weather: no significant weather observed at this time

METAR text: FIMP 191300Z 25003KT 5000 VCSH FEW006 BKN015 BKN050 21/19 Q1020
Conditions at: FIMP (PLAISANCE , MU) observed 1300 UTC 19 August 2019
Temperature: 21.0°C (70°F)
Dewpoint: 19.0°C (66°F) [RH = 88%]
Pressure (altimeter): 30.12 inches Hg (1020.0 mb)
Winds: from the WSW (250 degrees) at 3 MPH (3 knots; 1.5 m/s)
Visibility: 3 miles ( 5 km)
Ceiling: 1500 feet AGL
Clouds: few clouds at 600 feet AGL
broken clouds at 1500 feet AGL
broken clouds at 5000 feet AGL
Weather: VCSH  (showers in vicinity)

METAR text: FIMP 191200Z 07003KT 8000 VCSH FEW005 SCT015 BKN050 21/19 Q1020 RESH
Conditions at: FIMP (PLAISANCE , MU) observed 1200 UTC 19 August 2019
Temperature: 21.0°C (70°F)
Dewpoint: 19.0°C (66°F) [RH = 88%]
Pressure (altimeter): 30.12 inches Hg (1020.0 mb)
Winds: from the ENE (70 degrees) at 3 MPH (3 knots; 1.5 m/s)
Visibility: 5 miles ( 8 km)
Ceiling: 5000 feet AGL
Clouds: few clouds at 500 feet AGL
scattered clouds at 1500 feet AGL
broken clouds at 5000 feet AGL
Weather: VCSH  (showers in vicinity)

METAR text: FIMP 191100Z 15009KT 5000 -SHRA FEW010 SCT015 BKN050 21/20 Q1020
Conditions at: FIMP (PLAISANCE , MU) observed 1100 UTC 19 August 2019
Temperature: 21.0°C (70°F)
Dewpoint: 20.0°C (68°F) [RH = 94%]
Pressure (altimeter): 30.12 inches Hg (1020.0 mb)
Winds: from the SSE (150 degrees) at 10 MPH (9 knots; 4.6 m/s)
Visibility: 3 miles ( 5 km)
Ceiling: 5000 feet AGL
Clouds: few clouds at 1000 feet AGL
scattered clouds at 1500 feet AGL
broken clouds at 5000 feet AGL
Weather: -SHRA  (light rain showers)

METAR text: FIMP 191000Z 12008KT 8000 VCSH SCT015 BKN050 23/19 Q1020
Conditions at: FIMP (PLAISANCE , MU) observed 1000 UTC 19 August 2019
Temperature: 23.0°C (73°F)
Dewpoint: 19.0°C (66°F) [RH = 78%]
Pressure (altimeter): 30.12 inches Hg (1020.0 mb)
Winds: from the ESE (120 degrees) at 9 MPH (8 knots; 4.1 m/s)
Visibility: 5 miles ( 8 km)
Ceiling: 5000 feet AGL
Clouds: scattered clouds at 1500 feet AGL
broken clouds at 5000 feet AGL
Weather: VCSH  (showers in vicinity)

Forecast for: FIMP (PLAISANCE , MU)
Text: TAF FIMP 201720Z 2018/2200 10012G32KT 7000 -SHRA FEW006 SCT015 BKN050
Forecast period: 1800 UTC 20 August 2019 to 0000 UTC 22 August 2019
Forecast type: FROM: standard forecast or significant change
Winds: from the E (100 degrees) at 14 MPH (12 knots; 6.2 m/s)
gusting to 37 MPH (32 knots; 16.5 m/s)
Visibility: 4 miles (7 km)
Ceiling: 5000 feet AGL
Clouds: few clouds at 600 feet AGL
scattered clouds at 1500 feet AGL
broken clouds at 5000 feet AGL
Weather: -SHRA  (light rain showers)
Text: PROB30
Forecast period: 1800 UTC 20 August 2019 to 0400 UTC 21 August 2019
Forecast type: TEMPORARY: The following changes expected for less than half the time period
Visibility: 1.86 miles (2.99 km)
Ceiling: 1400 feet AGL
Clouds: few clouds at 500 feet AGL
broken clouds at 1400 feet AGL
Weather: SHRA  (rain showers)
Text: TEMPO 2018/2104 3000 SHRA FEW005 BKN014
Forecast period: 1000 UTC 21 August 2019 to 0000 UTC 22 August 2019
Forecast type: TEMPORARY: The following changes expected for less than half the time period
Visibility: missing
Ceiling: at least 12,000 feet AGL
Clouds: scattered clouds at 1600 feet AGL
Weather: no significant weather forecast for this period